sensor_id;sensor_type;location;lat;lon;timestamp;pressure;altitude;pressure_sealevel;temperature;humidity
21900;BME280;11114;50.658;12.704;2023-05-19T00:01:48;96818.88;;;12.62;51.59
21900;BME280;11114;50.658;12.704;2023-05-19T00:04:14;96817.22;;;12.61;51.21
21900;BME280;11114;50.658;12.704;2023-05-19T00:06:40;96820.16;;;12.58;51.54
21900;BME280;11114;50.658;12.704;2023-05-19T00:09:09;96815.19;;;12.55;51.84
21900;BME280;11114;50.658;12.704;2023-05-19T00:11:36;96815.53;;;12.52;51.94
21900;BME280;11114;50.658;12.704;2023-05-19T00:14:04;96817.47;;;12.50;51.75
21900;BME280;11114;50.658;12.704;2023-05-19T00:16:30;96808.94;;;12.48;51.66
21900;BME280;11114;50.658;12.704;2023-05-19T00:19:00;96820.84;;;12.43;51.91
21900;BME280;11114;50.658;12.704;2023-05-19T00:21:26;96811.22;;;12.43;51.86
21900;BME280;11114;50.658;12.704;2023-05-19T00:23:51;96807.63;;;12.44;51.83
21900;BME280;11114;50.658;12.704;2023-05-19T00:26:17;96806.94;;;12.42;52.06
21900;BME280;11114;50.658;12.704;2023-05-19T00:28:42;96800.75;;;12.43;52.06
21900;BME280;11114;50.658;12.704;2023-05-19T00:31:07;96805.13;;;12.43;52.04
21900;BME280;11114;50.658;12.704;2023-05-19T00:33:33;96795.50;;;12.43;52.05
21900;BME280;11114;50.658;12.704;2023-05-19T00:35:59;96791.06;;;12.44;51.98
21900;BME280;11114;50.658;12.704;2023-05-19T00:38:30;96787.94;;;12.40;52.13
21900;BME280;11114;50.658;12.704;2023-05-19T00:40:56;96788.25;;;12.37;52.16
21900;BME280;11114;50.658;12.704;2023-05-19T00:43:21;96784.00;;;12.36;52.01
21900;BME280;11114;50.658;12.704;2023-05-19T00:45:47;96783.63;;;12.31;52.17
21900;BME280;11114;50.658;12.704;2023-05-19T00:48:12;96792.47;;;12.30;52.48
21900;BME280;11114;50.658;12.704;2023-05-19T00:50:37;96794.09;;;12.31;52.55
21900;BME280;11114;50.658;12.704;2023-05-19T00:53:03;96781.84;;;12.32;52.63
21900;BME280;11114;50.658;12.704;2023-05-19T00:55:30;96782.16;;;12.29;52.48
21900;BME280;11114;50.658;12.704;2023-05-19T00:57:56;96787.53;;;12.28;52.82
21900;BME280;11114;50.658;12.704;2023-05-19T01:00:21;96793.88;;;12.25;52.66
21900;BME280;11114;50.658;12.704;2023-05-19T01:02:47;96784.38;;;12.24;52.76
21900;BME280;11114;50.658;12.704;2023-05-19T01:05:15;96786.94;;;12.16;52.78
21900;BME280;11114;50.658;12.704;2023-05-19T01:07:41;96788.75;;;12.16;52.95
21900;BME280;11114;50.658;12.704;2023-05-19T01:10:07;96783.88;;;12.21;53.10
21900;BME280;11114;50.658;12.704;2023-05-19T01:12:33;96788.13;;;12.22;53.27
21900;BME280;11114;50.658;12.704;2023-05-19T01:14:59;96775.56;;;12.25;53.42
21900;BME280;11114;50.658;12.704;2023-05-19T01:17:29;96779.00;;;12.26;53.21
21900;BME280;11114;50.658;12.704;2023-05-19T01:20:21;96782.44;;;12.26;53.50
21900;BME280;11114;50.658;12.704;2023-05-19T01:31:26;96784.19;;;12.18;53.03
21900;BME280;11114;50.658;12.704;2023-05-19T01:33:52;96787.09;;;12.15;53.14
21900;BME280;11114;50.658;12.704;2023-05-19T01:36:21;96781.53;;;12.10;53.43
21900;BME280;11114;50.658;12.704;2023-05-19T01:38:48;96787.84;;;12.07;53.55
21900;BME280;11114;50.658;12.704;2023-05-19T01:41:15;96786.25;;;12.06;53.56
21900;BME280;11114;50.658;12.704;2023-05-19T01:43:41;96784.44;;;12.07;53.59
21900;BME280;11114;50.658;12.704;2023-05-19T01:46:07;96781.66;;;12.08;53.70
21900;BME280;11114;50.658;12.704;2023-05-19T01:48:33;96787.72;;;12.09;53.69
21900;BME280;11114;50.658;12.704;2023-05-19T01:50:58;96781.81;;;12.07;53.58
21900;BME280;11114;50.658;12.704;2023-05-19T01:53:24;96784.72;;;12.04;53.61
21900;BME280;11114;50.658;12.704;2023-05-19T01:55:52;96790.63;;;12.06;53.54
21900;BME280;11114;50.658;12.704;2023-05-19T01:58:43;96787.84;;;12.07;53.79
21900;BME280;11114;50.658;12.704;2023-05-19T02:04:00;96781.53;;;12.10;53.52
21900;BME280;11114;50.658;12.704;2023-05-19T02:06:41;96780.84;;;12.08;53.63
21900;BME280;11114;50.658;12.704;2023-05-19T02:09:14;96776.59;;;12.07;53.36
21900;BME280;11114;50.658;12.704;2023-05-19T02:12:08;96777.56;;;12.06;53.73
21900;BME280;11114;50.658;12.704;2023-05-19T02:14:48;96778.53;;;12.05;53.47
21900;BME280;11114;50.658;12.704;2023-05-19T02:17:16;96776.22;;;12.02;53.37
21900;BME280;11114;50.658;12.704;2023-05-19T02:19:42;96779.13;;;11.99;53.26
21900;BME280;11114;50.658;12.704;2023-05-19T02:22:08;96780.56;;;11.93;53.33
21900;BME280;11114;50.658;12.704;2023-05-19T02:24:33;96777.25;;;11.91;53.40
21900;BME280;11114;50.658;12.704;2023-05-19T02:26:59;96774.81;;;11.90;53.48
21900;BME280;11114;50.658;12.704;2023-05-19T02:29:25;96777.44;;;11.90;53.51
21900;BME280;11114;50.658;12.704;2023-05-19T02:31:50;96771.53;;;11.88;53.56
21900;BME280;11114;50.658;12.704;2023-05-19T02:34:15;96774.28;;;11.86;53.56
21900;BME280;11114;50.658;12.704;2023-05-19T02:36:41;96770.31;;;11.82;53.55
21900;BME280;11114;50.658;12.704;2023-05-19T02:39:10;96765.53;;;11.78;53.35
21900;BME280;11114;50.658;12.704;2023-05-19T02:41:36;96764.59;;;11.61;53.00
21900;BME280;11114;50.658;12.704;2023-05-19T02:44:02;96770.16;;;11.49;53.05
21900;BME280;11114;50.658;12.704;2023-05-19T02:46:28;96766.72;;;11.31;53.22
21900;BME280;11114;50.658;12.704;2023-05-19T02:48:53;96768.78;;;11.28;53.36
21900;BME280;11114;50.658;12.704;2023-05-19T02:51:19;96764.81;;;11.24;52.97
21900;BME280;11114;50.658;12.704;2023-05-19T02:53:44;96767.19;;;11.17;53.20
21900;BME280;11114;50.658;12.704;2023-05-19T02:56:09;96760.31;;;11.16;53.50
21900;BME280;11114;50.658;12.704;2023-05-19T02:58:35;96757.59;;;11.18;53.47
21900;BME280;11114;50.658;12.704;2023-05-19T03:01:00;96759.88;;;11.21;53.58
21900;BME280;11114;50.658;12.704;2023-05-19T03:03:26;96765.94;;;11.21;53.31
21900;BME280;11114;50.658;12.704;2023-05-19T03:05:52;96764.22;;;11.12;53.46
21900;BME280;11114;50.658;12.704;2023-05-19T03:08:18;96764.56;;;11.00;53.49
21900;BME280;11114;50.658;12.704;2023-05-19T03:10:45;96770.34;;;10.94;53.55
21900;BME280;11114;50.658;12.704;2023-05-19T03:13:10;96765.97;;;10.94;53.71
21900;BME280;11114;50.658;12.704;2023-05-19T03:15:36;96776.00;;;10.89;53.60
21900;BME280;11114;50.658;12.704;2023-05-19T03:18:01;96767.13;;;10.82;53.51
21900;BME280;11114;50.658;12.704;2023-05-19T03:20:27;96771.97;;;10.77;53.77
21900;BME280;11114;50.658;12.704;2023-05-19T03:22:54;96772.25;;;10.74;53.81
21900;BME280;11114;50.658;12.704;2023-05-19T03:25:20;96764.03;;;10.69;53.79
21900;BME280;11114;50.658;12.704;2023-05-19T03:27:45;96774.75;;;10.66;53.94
21900;BME280;11114;50.658;12.704;2023-05-19T03:30:11;96762.66;;;10.65;53.91
21900;BME280;11114;50.658;12.704;2023-05-19T03:32:36;96765.53;;;10.63;54.23
21900;BME280;11114;50.658;12.704;2023-05-19T03:35:03;96768.91;;;10.55;54.39
21900;BME280;11114;50.658;12.704;2023-05-19T03:37:29;96767.00;;;10.48;54.58
21900;BME280;11114;50.658;12.704;2023-05-19T03:39:54;96770.44;;;10.48;54.72
21900;BME280;11114;50.658;12.704;2023-05-19T03:42:20;96774.00;;;10.47;54.83
21900;BME280;11114;50.658;12.704;2023-05-19T03:44:45;96763.41;;;10.49;54.52
21900;BME280;11114;50.658;12.704;2023-05-19T03:47:11;96765.88;;;10.50;54.98
21900;BME280;11114;50.658;12.704;2023-05-19T03:49:36;96767.53;;;10.51;55.36
21900;BME280;11114;50.658;12.704;2023-05-19T03:52:01;96771.50;;;10.55;55.38
21900;BME280;11114;50.658;12.704;2023-05-19T03:54:27;96768.75;;;10.57;55.66
21900;BME280;11114;50.658;12.704;2023-05-19T03:56:52;96761.31;;;10.62;55.96
21900;BME280;11114;50.658;12.704;2023-05-19T03:59:18;96770.50;;;10.65;56.13
21900;BME280;11114;50.658;12.704;2023-05-19T04:01:43;96762.06;;;10.71;56.24
21900;BME280;11114;50.658;12.704;2023-05-19T04:04:09;96756.41;;;10.76;56.47
21900;BME280;11114;50.658;12.704;2023-05-19T04:06:34;96766.16;;;10.83;56.45
21900;BME280;11114;50.658;12.704;2023-05-19T04:09:01;96763.78;;;10.90;56.43
21900;BME280;11114;50.658;12.704;2023-05-19T04:11:26;96769.53;;;10.93;56.17
21900;BME280;11114;50.658;12.704;2023-05-19T04:13:51;96772.41;;;11.00;56.27
21900;BME280;11114;50.658;12.704;2023-05-19T04:16:17;96771.66;;;11.07;56.40
21900;BME280;11114;50.658;12.704;2023-05-19T04:18:44;96774.34;;;11.15;56.59
21900;BME280;11114;50.658;12.704;2023-05-19T04:21:10;96777.38;;;11.20;56.42
21900;BME280;11114;50.658;12.704;2023-05-19T04:23:35;96765.78;;;11.23;56.34
21900;BME280;11114;50.658;12.704;2023-05-19T04:26:00;96771.38;;;11.28;56.03
21900;BME280;11114;50.658;12.704;2023-05-19T04:28:27;96771.63;;;11.34;56.00
21900;BME280;11114;50.658;12.704;2023-05-19T04:30:53;96774.63;;;11.39;56.25
21900;BME280;11114;50.658;12.704;2023-05-19T04:33:20;96771.88;;;11.41;56.46
21900;BME280;11114;50.658;12.704;2023-05-19T04:35:45;96769.41;;;11.39;56.64
21900;BME280;11114;50.658;12.704;2023-05-19T04:38:11;96761.41;;;11.41;56.88
21900;BME280;11114;50.658;12.704;2023-05-19T04:40:37;96772.09;;;11.47;56.31
21900;BME280;11114;50.658;12.704;2023-05-19T04:43:04;96768.75;;;11.54;56.65
21900;BME280;11114;50.658;12.704;2023-05-19T04:45:31;96769.66;;;11.63;56.62
21900;BME280;11114;50.658;12.704;2023-05-19T04:47:57;96766.31;;;11.70;56.82
21900;BME280;11114;50.658;12.704;2023-05-19T04:50:23;96763.53;;;11.72;57.05
21900;BME280;11114;50.658;12.704;2023-05-19T04:52:49;96767.63;;;11.74;57.19
21900;BME280;11114;50.658;12.704;2023-05-19T04:55:15;96771.16;;;11.83;57.35
21900;BME280;11114;50.658;12.704;2023-05-19T04:57:41;96766.66;;;11.93;57.41
21900;BME280;11114;50.658;12.704;2023-05-19T05:00:07;96774.06;;;11.97;57.23
21900;BME280;11114;50.658;12.704;2023-05-19T05:02:36;96777.19;;;12.01;57.25
21900;BME280;11114;50.658;12.704;2023-05-19T05:05:01;96772.25;;;11.98;57.45
21900;BME280;11114;50.658;12.704;2023-05-19T05:07:26;96770.59;;;11.97;57.50
21900;BME280;11114;50.658;12.704;2023-05-19T05:09:52;96772.09;;;11.99;58.11
21900;BME280;11114;50.658;12.704;2023-05-19T05:12:17;96769.88;;;12.04;57.83
21900;BME280;11114;50.658;12.704;2023-05-19T05:14:43;96768.44;;;12.10;57.59
21900;BME280;11114;50.658;12.704;2023-05-19T05:17:10;96768.50;;;12.18;57.68
21900;BME280;11114;50.658;12.704;2023-05-19T05:19:37;96773.09;;;12.24;57.24
21900;BME280;11114;50.658;12.704;2023-05-19T05:22:02;96767.91;;;12.31;56.96
21900;BME280;11114;50.658;12.704;2023-05-19T05:24:28;96772.53;;;12.37;56.88
21900;BME280;11114;50.658;12.704;2023-05-19T05:26:54;96768.19;;;12.46;56.69
21900;BME280;11114;50.658;12.704;2023-05-19T05:29:19;96765.09;;;12.50;56.40
21900;BME280;11114;50.658;12.704;2023-05-19T05:31:45;96766.63;;;12.61;56.45
21900;BME280;11114;50.658;12.704;2023-05-19T05:34:10;96761.59;;;12.67;56.20
21900;BME280;11114;50.658;12.704;2023-05-19T05:36:36;96759.97;;;12.74;56.21
21900;BME280;11114;50.658;12.704;2023-05-19T05:39:01;96766.09;;;12.83;55.92
21900;BME280;11114;50.658;12.704;2023-05-19T05:41:27;96775.97;;;12.89;55.84
21900;BME280;11114;50.658;12.704;2023-05-19T05:43:59;96767.94;;;12.90;56.13
21900;BME280;11114;50.658;12.704;2023-05-19T05:46:24;96776.06;;;12.79;55.91
21900;BME280;11114;50.658;12.704;2023-05-19T05:48:50;96774.44;;;12.78;56.23
21900;BME280;11114;50.658;12.704;2023-05-19T05:51:15;96773.13;;;12.82;56.37
21900;BME280;11114;50.658;12.704;2023-05-19T05:53:41;96775.28;;;12.87;56.35
21900;BME280;11114;50.658;12.704;2023-05-19T05:56:09;96769.59;;;12.91;56.38
21900;BME280;11114;50.658;12.704;2023-05-19T05:58:35;96773.03;;;12.92;56.50
21900;BME280;11114;50.658;12.704;2023-05-19T06:01:02;96769.94;;;12.96;56.58
21900;BME280;11114;50.658;12.704;2023-05-19T06:03:29;96764.06;;;13.02;56.34
21900;BME280;11114;50.658;12.704;2023-05-19T06:05:56;96767.06;;;13.07;56.20
21900;BME280;11114;50.658;12.704;2023-05-19T06:08:21;96767.38;;;13.12;56.40
21900;BME280;11114;50.658;12.704;2023-05-19T06:10:47;96763.47;;;13.16;56.00
21900;BME280;11114;50.658;12.704;2023-05-19T06:13:12;96766.94;;;13.24;56.06
21900;BME280;11114;50.658;12.704;2023-05-19T06:15:38;96763.84;;;13.29;56.29
21900;BME280;11114;50.658;12.704;2023-05-19T06:18:06;96770.06;;;13.36;56.17
21900;BME280;11114;50.658;12.704;2023-05-19T06:20:31;96771.72;;;13.45;56.73
21900;BME280;11114;50.658;12.704;2023-05-19T06:22:57;96770.94;;;13.52;56.20
21900;BME280;11114;50.658;12.704;2023-05-19T06:25:22;96771.13;;;13.59;55.93
21900;BME280;11114;50.658;12.704;2023-05-19T06:27:48;96769.19;;;13.69;55.86
21900;BME280;11114;50.658;12.704;2023-05-19T06:30:14;96764.56;;;13.71;55.21
21900;BME280;11114;50.658;12.704;2023-05-19T06:32:40;96760.16;;;13.71;55.06
21900;BME280;11114;50.658;12.704;2023-05-19T06:35:05;96759.31;;;13.63;55.16
21900;BME280;11114;50.658;12.704;2023-05-19T06:37:31;96759.50;;;13.69;55.20
21900;BME280;11114;50.658;12.704;2023-05-19T06:39:56;96759.00;;;13.82;55.15
21900;BME280;11114;50.658;12.704;2023-05-19T06:42:21;96761.97;;;14.02;55.56
21900;BME280;11114;50.658;12.704;2023-05-19T06:44:48;96754.41;;;14.31;55.12
21900;BME280;11114;50.658;12.704;2023-05-19T06:47:14;96757.50;;;14.59;54.44
21900;BME280;11114;50.658;12.704;2023-05-19T06:49:40;96754.81;;;14.82;53.67
21900;BME280;11114;50.658;12.704;2023-05-19T06:52:08;96755.81;;;15.12;53.63
21900;BME280;11114;50.658;12.704;2023-05-19T06:54:33;96755.59;;;15.37;52.95
21900;BME280;11114;50.658;12.704;2023-05-19T06:56:58;96753.13;;;15.58;52.21
21900;BME280;11114;50.658;12.704;2023-05-19T06:59:24;96754.69;;;15.53;51.63
21900;BME280;11114;50.658;12.704;2023-05-19T07:01:51;96753.63;;;15.62;51.86
21900;BME280;11114;50.658;12.704;2023-05-19T07:04:16;96754.13;;;15.79;51.17
21900;BME280;11114;50.658;12.704;2023-05-19T07:06:42;96748.78;;;15.95;50.91
21900;BME280;11114;50.658;12.704;2023-05-19T07:09:07;96742.06;;;16.07;50.94
21900;BME280;11114;50.658;12.704;2023-05-19T07:11:33;96751.09;;;16.13;50.35
21900;BME280;11114;50.658;12.704;2023-05-19T07:13:58;96739.66;;;16.20;50.23
21900;BME280;11114;50.658;12.704;2023-05-19T07:16:24;96753.00;;;16.41;50.05
21900;BME280;11114;50.658;12.704;2023-05-19T07:18:49;96752.47;;;16.60;49.95
21900;BME280;11114;50.658;12.704;2023-05-19T07:21:15;96750.13;;;16.65;49.13
21900;BME280;11114;50.658;12.704;2023-05-19T07:23:40;96758.69;;;16.67;48.96
21900;BME280;11114;50.658;12.704;2023-05-19T07:26:05;96749.22;;;16.58;48.92
21900;BME280;11114;50.658;12.704;2023-05-19T07:28:31;96757.69;;;16.53;49.48
21900;BME280;11114;50.658;12.704;2023-05-19T07:30:58;96743.94;;;16.72;49.07
21900;BME280;11114;50.658;12.704;2023-05-19T07:33:23;96743.41;;;16.77;48.96
21900;BME280;11114;50.658;12.704;2023-05-19T07:35:51;96734.78;;;16.83;48.00
21900;BME280;11114;50.658;12.704;2023-05-19T07:38:17;96729.75;;;16.73;48.33
21900;BME280;11114;50.658;12.704;2023-05-19T07:40:42;96727.13;;;16.88;48.44
21900;BME280;11114;50.658;12.704;2023-05-19T07:43:08;96733.59;;;17.00;49.20
21900;BME280;11114;50.658;12.704;2023-05-19T07:45:33;96735.38;;;17.14;48.16
21900;BME280;11114;50.658;12.704;2023-05-19T07:48:01;96722.47;;;17.19;48.39
21900;BME280;11114;50.658;12.704;2023-05-19T07:50:30;96728.75;;;17.32;47.86
21900;BME280;11114;50.658;12.704;2023-05-19T07:52:58;96718.06;;;17.40;47.89
21900;BME280;11114;50.658;12.704;2023-05-19T07:55:23;96721.81;;;17.66;47.54
21900;BME280;11114;50.658;12.704;2023-05-19T07:57:49;96717.53;;;17.86;47.00
21900;BME280;11114;50.658;12.704;2023-05-19T08:00:15;96720.63;;;17.90;46.75
21900;BME280;11114;50.658;12.704;2023-05-19T08:02:42;96722.88;;;17.93;46.95
21900;BME280;11114;50.658;12.704;2023-05-19T08:05:08;96716.91;;;18.05;46.89
21900;BME280;11114;50.658;12.704;2023-05-19T08:07:34;96719.84;;;18.16;46.29
21900;BME280;11114;50.658;12.704;2023-05-19T08:10:00;96717.53;;;18.28;46.05
21900;BME280;11114;50.658;12.704;2023-05-19T08:12:27;96723.91;;;18.19;46.16
21900;BME280;11114;50.658;12.704;2023-05-19T08:14:52;96723.25;;;18.11;45.95
21900;BME280;11114;50.658;12.704;2023-05-19T08:17:17;96729.53;;;18.10;45.56
21900;BME280;11114;50.658;12.704;2023-05-19T08:19:48;96723.66;;;18.28;46.38
21900;BME280;11114;50.658;12.704;2023-05-19T08:22:14;96720.75;;;18.51;46.04
21900;BME280;11114;50.658;12.704;2023-05-19T08:24:40;96717.97;;;18.65;45.71
21900;BME280;11114;50.658;12.704;2023-05-19T08:27:07;96723.72;;;19.09;45.19
21900;BME280;11114;50.658;12.704;2023-05-19T08:29:32;96710.28;;;19.57;45.26
21900;BME280;11114;50.658;12.704;2023-05-19T08:31:58;96700.44;;;19.98;44.80
21900;BME280;11114;50.658;12.704;2023-05-19T08:34:24;96710.41;;;19.96;44.39
21900;BME280;11114;50.658;12.704;2023-05-19T08:36:49;96700.44;;;20.17;43.89
21900;BME280;11114;50.658;12.704;2023-05-19T08:39:17;96697.56;;;20.58;44.27
21900;BME280;11114;50.658;12.704;2023-05-19T08:41:48;96702.44;;;20.80;42.83
21900;BME280;11114;50.658;12.704;2023-05-19T08:44:20;96699.34;;;20.89;42.73
21900;BME280;11114;50.658;12.704;2023-05-19T08:46:48;96699.69;;;21.12;42.52
21900;BME280;11114;50.658;12.704;2023-05-19T08:49:24;96698.00;;;21.24;40.90
21900;BME280;11114;50.658;12.704;2023-05-19T08:57:35;96687.56;;;22.35;40.57
21900;BME280;11114;50.658;12.704;2023-05-19T09:00:25;96683.97;;;22.47;39.11
21900;BME280;11114;50.658;12.704;2023-05-19T09:02:56;96679.84;;;22.69;39.57
21900;BME280;11114;50.658;12.704;2023-05-19T09:05:24;96686.41;;;23.09;38.78
21900;BME280;11114;50.658;12.704;2023-05-19T09:07:54;96672.78;;;23.34;39.57
21900;BME280;11114;50.658;12.704;2023-05-19T09:10:30;96671.47;;;23.55;38.09
21900;BME280;11114;50.658;12.704;2023-05-19T09:13:01;96662.69;;;23.84;37.93
21900;BME280;11114;50.658;12.704;2023-05-19T09:15:36;96652.66;;;24.08;38.09
21900;BME280;11114;50.658;12.704;2023-05-19T09:18:19;96657.03;;;23.92;36.60
21900;BME280;11114;50.658;12.704;2023-05-19T09:20:58;96651.81;;;23.97;36.72
21900;BME280;11114;50.658;12.704;2023-05-19T09:23:37;96661.69;;;24.08;36.65
21900;BME280;11114;50.658;12.704;2023-05-19T09:26:06;96659.28;;;24.17;36.82
21900;BME280;11114;50.658;12.704;2023-05-19T09:28:38;96652.13;;;24.29;36.40
21900;BME280;11114;50.658;12.704;2023-05-19T09:31:13;96651.97;;;24.36;36.39
21900;BME280;11114;50.658;12.704;2023-05-19T09:33:44;96654.44;;;24.37;36.48
21900;BME280;11114;50.658;12.704;2023-05-19T09:36:25;96648.31;;;24.60;36.33
21900;BME280;11114;50.658;12.704;2023-05-19T09:38:53;96645.31;;;24.56;35.53
21900;BME280;11114;50.658;12.704;2023-05-19T09:41:25;96649.00;;;24.78;35.94
21900;BME280;11114;50.658;12.704;2023-05-19T09:44:24;96651.53;;;24.96;33.61
21900;BME280;11114;50.658;12.704;2023-05-19T09:47:16;96647.22;;;24.95;34.95
21900;BME280;11114;50.658;12.704;2023-05-19T09:49:50;96646.53;;;25.11;34.45
21900;BME280;11114;50.658;12.704;2023-05-19T09:55:31;96650.38;;;25.03;33.85
21900;BME280;11114;50.658;12.704;2023-05-19T09:58:17;96647.59;;;24.87;32.61
21900;BME280;11114;50.658;12.704;2023-05-19T10:00:46;96643.91;;;24.65;33.03
21900;BME280;11114;50.658;12.704;2023-05-19T10:03:14;96644.47;;;24.21;32.48
21900;BME280;11114;50.658;12.704;2023-05-19T10:05:42;96647.97;;;23.81;33.28
21900;BME280;11114;50.658;12.704;2023-05-19T10:08:07;96639.63;;;23.78;35.05
21900;BME280;11114;50.658;12.704;2023-05-19T10:10:35;96630.53;;;23.79;34.77
21900;BME280;11114;50.658;12.704;2023-05-19T10:13:01;96629.41;;;23.75;35.15
21900;BME280;11114;50.658;12.704;2023-05-19T10:15:28;96623.50;;;23.55;35.08
21900;BME280;11114;50.658;12.704;2023-05-19T10:17:53;96619.91;;;23.61;34.54
21900;BME280;11114;50.658;12.704;2023-05-19T10:20:20;96618.41;;;23.53;35.34
21900;BME280;11114;50.658;12.704;2023-05-19T10:22:45;96615.63;;;23.78;35.00
21900;BME280;11114;50.658;12.704;2023-05-19T10:25:11;96610.41;;;23.83;34.19
21900;BME280;11114;50.658;12.704;2023-05-19T10:28:03;96612.34;;;23.76;32.85
21900;BME280;11114;50.658;12.704;2023-05-19T10:30:33;96608.09;;;23.86;34.53
21900;BME280;11114;50.658;12.704;2023-05-19T10:33:00;96603.69;;;24.03;35.17
21900;BME280;11114;50.658;12.704;2023-05-19T10:35:53;96606.16;;;24.27;35.03
21900;BME280;11114;50.658;12.704;2023-05-19T10:41:09;96604.88;;;24.07;34.31
21900;BME280;11114;50.658;12.704;2023-05-19T10:46:24;96605.03;;;24.46;34.45
21900;BME280;11114;50.658;12.704;2023-05-19T10:48:51;96604.09;;;24.52;34.27
21900;BME280;11114;50.658;12.704;2023-05-19T10:51:16;96603.94;;;24.36;34.84
21900;BME280;11114;50.658;12.704;2023-05-19T10:53:42;96606.41;;;24.60;33.36
21900;BME280;11114;50.658;12.704;2023-05-19T10:56:11;96612.53;;;24.84;32.78
21900;BME280;11114;50.658;12.704;2023-05-19T10:58:52;96602.41;;;24.97;32.81
21900;BME280;11114;50.658;12.704;2023-05-19T11:01:18;96612.41;;;24.90;32.41
21900;BME280;11114;50.658;12.704;2023-05-19T11:08:46;96592.09;;;25.28;31.93
21900;BME280;11114;50.658;12.704;2023-05-19T11:11:16;96590.63;;;25.09;31.76
21900;BME280;11114;50.658;12.704;2023-05-19T11:13:46;96596.22;;;24.96;32.43
21900;BME280;11114;50.658;12.704;2023-05-19T11:16:12;96586.63;;;24.95;32.78
21900;BME280;11114;50.658;12.704;2023-05-19T11:18:38;96577.53;;;24.96;32.09
21900;BME280;11114;50.658;12.704;2023-05-19T11:21:03;96583.91;;;24.56;30.97
21900;BME280;11114;50.658;12.704;2023-05-19T11:23:32;96583.78;;;24.28;32.39
21900;BME280;11114;50.658;12.704;2023-05-19T11:26:00;96582.16;;;24.16;33.32
21900;BME280;11114;50.658;12.704;2023-05-19T11:28:26;96582.25;;;23.98;32.61
21900;BME280;11114;50.658;12.704;2023-05-19T11:30:55;96580.63;;;23.86;32.55
21900;BME280;11114;50.658;12.704;2023-05-19T11:33:21;96580.88;;;23.66;33.27
21900;BME280;11114;50.658;12.704;2023-05-19T11:35:52;96581.88;;;23.54;33.23
21900;BME280;11114;50.658;12.704;2023-05-19T11:38:18;96580.47;;;23.40;32.98
21900;BME280;11114;50.658;12.704;2023-05-19T11:40:45;96580.72;;;23.50;34.06
21900;BME280;11114;50.658;12.704;2023-05-19T11:43:12;96576.56;;;23.65;33.63
21900;BME280;11114;50.658;12.704;2023-05-19T11:45:38;96580.47;;;23.40;33.66
21900;BME280;11114;50.658;12.704;2023-05-19T11:48:03;96566.59;;;23.61;34.82
21900;BME280;11114;50.658;12.704;2023-05-19T11:50:32;96571.00;;;23.85;34.79
21900;BME280;11114;50.658;12.704;2023-05-19T11:52:59;96568.69;;;24.00;33.72
21900;BME280;11114;50.658;12.704;2023-05-19T11:55:25;96554.88;;;24.25;33.80
21900;BME280;11114;50.658;12.704;2023-05-19T11:57:57;96569.94;;;24.31;33.99
21900;BME280;11114;50.658;12.704;2023-05-19T12:00:25;96568.22;;;24.25;33.40
21900;BME280;11114;50.658;12.704;2023-05-19T12:02:51;96567.97;;;24.27;33.81
21900;BME280;11114;50.658;12.704;2023-05-19T12:05:19;96566.47;;;24.42;33.61
21900;BME280;11114;50.658;12.704;2023-05-19T12:07:45;96562.06;;;23.91;33.60
21900;BME280;11114;50.658;12.704;2023-05-19T12:10:11;96569.13;;;23.97;34.31
21900;BME280;11114;50.658;12.704;2023-05-19T12:12:37;96564.38;;;23.99;34.03
21900;BME280;11114;50.658;12.704;2023-05-19T12:15:02;96571.38;;;23.59;33.45
21900;BME280;11114;50.658;12.704;2023-05-19T12:17:31;96566.31;;;23.39;33.75
21900;BME280;11114;50.658;12.704;2023-05-19T12:20:11;96565.56;;;23.21;34.45
21900;BME280;11114;50.658;12.704;2023-05-19T12:22:39;96560.44;;;22.90;33.78
21900;BME280;11114;50.658;12.704;2023-05-19T12:25:07;96565.19;;;22.52;34.13
21900;BME280;11114;50.658;12.704;2023-05-19T12:27:35;96561.63;;;22.16;35.67
21900;BME280;11114;50.658;12.704;2023-05-19T12:30:06;96575.88;;;22.04;35.13
21900;BME280;11114;50.658;12.704;2023-05-19T12:32:33;96574.16;;;21.91;35.60
21900;BME280;11114;50.658;12.704;2023-05-19T12:35:03;96562.25;;;21.94;35.40
21900;BME280;11114;50.658;12.704;2023-05-19T12:37:32;96567.84;;;21.86;34.68
21900;BME280;11114;50.658;12.704;2023-05-19T12:40:01;96561.13;;;21.59;34.89
21900;BME280;11114;50.658;12.704;2023-05-19T12:42:30;96561.44;;;21.45;35.50
21900;BME280;11114;50.658;12.704;2023-05-19T12:44:58;96561.59;;;21.19;35.20
21900;BME280;11114;50.658;12.704;2023-05-19T12:48:32;96557.56;;;20.53;37.60
21900;BME280;11114;50.658;12.704;2023-05-19T12:51:19;96560.00;;;20.61;38.02
21900;BME280;11114;50.658;12.704;2023-05-19T12:54:05;96554.69;;;20.55;37.33
21900;BME280;11114;50.658;12.704;2023-05-19T12:56:56;96552.13;;;20.35;37.54
21900;BME280;11114;50.658;12.704;2023-05-19T12:59:42;96547.50;;;20.18;38.03
21900;BME280;11114;50.658;12.704;2023-05-19T13:02:29;96551.56;;;20.14;38.51
21900;BME280;11114;50.658;12.704;2023-05-19T13:05:17;96544.63;;;20.19;39.75
21900;BME280;11114;50.658;12.704;2023-05-19T13:08:07;96540.19;;;20.00;40.41
21900;BME280;11114;50.658;12.704;2023-05-19T13:10:54;96547.94;;;19.95;40.74
21900;BME280;11114;50.658;12.704;2023-05-19T13:13:41;96548.75;;;19.96;40.57
21900;BME280;11114;50.658;12.704;2023-05-19T13:16:28;96554.03;;;19.70;40.77
21900;BME280;11114;50.658;12.704;2023-05-19T13:19:17;96561.38;;;19.55;40.46
21900;BME280;11114;50.658;12.704;2023-05-19T13:22:11;96554.44;;;19.41;41.33
21900;BME280;11114;50.658;12.704;2023-05-19T13:24:57;96542.63;;;19.57;41.23
21900;BME280;11114;50.658;12.704;2023-05-19T13:27:45;96549.56;;;19.51;40.83
21900;BME280;11114;50.658;12.704;2023-05-19T13:30:33;96550.34;;;19.32;41.98